createdAt,value
2019-05-25T00:00:07.960Z,18.29
2019-05-25T00:02:40.006Z,18.24
2019-05-25T00:05:13.750Z,18.19
2019-05-25T00:07:46.292Z,18.21
2019-05-25T00:10:18.981Z,18.24
2019-05-25T00:12:51.659Z,18.29
2019-05-25T00:15:23.933Z,18.31
2019-05-25T00:17:56.193Z,18.35
2019-05-25T00:20:29.095Z,18.36
2019-05-25T00:23:01.353Z,18.33
2019-05-25T00:25:33.920Z,18.29
2019-05-25T00:28:06.397Z,18.26
2019-05-25T00:30:38.668Z,18.31
2019-05-25T00:33:11.145Z,18.37
2019-05-25T00:35:43.729Z,18.38
2019-05-25T00:38:16.299Z,18.33
2019-05-25T00:40:49.078Z,18.32
2019-05-25T00:43:21.659Z,18.32
2019-05-25T00:45:54.234Z,18.29
2019-05-25T00:48:26.297Z,18.27
2019-05-25T00:50:58.772Z,18.25
2019-05-25T00:53:31.146Z,18.21
2019-05-25T00:56:03.728Z,18.20
2019-05-25T00:58:36.302Z,18.22
2019-05-25T01:01:08.905Z,18.26
2019-05-25T01:03:41.356Z,18.27
2019-05-25T01:06:14.035Z,18.26
2019-05-25T01:08:46.612Z,18.25
2019-05-25T01:11:19.049Z,18.22
2019-05-25T01:13:52.022Z,18.26
2019-05-25T01:16:24.541Z,18.26
2019-05-25T01:18:57.118Z,18.24
2019-05-25T01:21:29.588Z,18.21
2019-05-25T01:24:01.758Z,18.19
2019-05-25T01:26:34.337Z,18.21
2019-05-25T01:29:06.502Z,18.22
2019-05-25T01:31:39.287Z,18.28
2019-05-25T01:34:11.469Z,18.30
2019-05-25T01:36:44.033Z,18.30
2019-05-25T01:39:16.029Z,18.32
2019-05-25T01:41:48.571Z,18.25
2019-05-25T01:44:21.038Z,18.19
2019-05-25T01:46:53.821Z,18.23
2019-05-25T01:49:25.912Z,18.24
2019-05-25T01:51:58.256Z,18.26
2019-05-25T01:54:30.631Z,18.26
2019-05-25T01:57:03.170Z,18.21
2019-05-25T01:59:35.575Z,18.23
2019-05-25T02:02:08.367Z,18.28
2019-05-25T02:04:40.530Z,18.25
2019-05-25T02:07:12.904Z,18.24
2019-05-25T02:09:45.278Z,18.29
2019-05-25T02:12:17.748Z,18.33
2019-05-25T02:14:50.324Z,18.39
2019-05-25T02:17:22.491Z,18.40
2019-05-25T02:19:54.761Z,18.35
2019-05-25T02:22:27.236Z,18.27
2019-05-25T02:25:14.495Z,18.30
2019-05-25T02:27:33.619Z,18.36
2019-05-25T02:30:07.427Z,18.45
2019-05-25T02:32:39.794Z,18.50
2019-05-25T02:35:15.247Z,18.54
2019-05-25T02:37:47.920Z,18.59
2019-05-25T02:40:20.292Z,18.64
2019-05-25T02:42:52.563Z,18.67
2019-05-25T02:45:24.838Z,18.75
2019-05-25T02:47:57.104Z,18.86
2019-05-25T02:50:29.370Z,18.97
2019-05-25T02:53:01.745Z,19.05
2019-05-25T02:55:35.098Z,19.11
2019-05-25T02:58:07.034Z,19.15
2019-05-25T03:00:39.171Z,19.18
2019-05-25T03:03:11.847Z,19.28
2019-05-25T03:05:44.136Z,19.38
2019-05-25T03:08:16.998Z,19.50
2019-05-25T03:10:49.377Z,19.57
2019-05-25T03:13:22.986Z,19.67
2019-05-25T03:15:56.110Z,19.77
2019-05-25T03:18:28.638Z,19.89
2019-05-25T03:21:01.005Z,19.96
2019-05-25T03:23:33.382Z,19.87
2019-05-25T03:26:05.751Z,20.00
2019-05-25T03:28:38.125Z,20.08
2019-05-25T03:31:10.501Z,20.12
2019-05-25T03:33:42.872Z,20.18
2019-05-25T03:36:15.135Z,20.24
2019-05-25T03:38:47.817Z,20.34
2019-05-25T03:41:21.224Z,20.37
2019-05-25T03:43:53.745Z,20.51
2019-05-25T03:46:25.972Z,21.02
2019-05-25T03:48:58.390Z,21.10
2019-05-25T03:51:30.607Z,21.07
2019-05-25T03:54:03.722Z,21.03
2019-05-25T03:56:35.773Z,21.08
2019-05-25T03:59:08.131Z,21.04
2019-05-25T04:01:40.501Z,21.07
2019-05-25T04:04:13.393Z,21.00
2019-05-25T04:06:45.869Z,21.13
2019-05-25T04:09:18.441Z,21.36
2019-05-25T04:11:50.514Z,21.18
2019-05-25T04:14:23.191Z,21.38
2019-05-25T04:16:56.582Z,21.69
2019-05-25T04:19:28.849Z,21.79
2019-05-25T04:22:01.028Z,22.26
2019-05-25T04:24:33.827Z,22.39
2019-05-25T04:27:08.437Z,22.52
2019-05-25T04:29:40.697Z,22.27
2019-05-25T04:32:13.282Z,22.45
2019-05-25T04:34:45.642Z,22.87
2019-05-25T04:37:18.114Z,22.99
2019-05-25T04:39:50.513Z,22.85
2019-05-25T04:42:22.865Z,22.84
2019-05-25T04:44:55.665Z,22.63
2019-05-25T04:47:28.009Z,22.24
2019-05-25T04:50:00.384Z,22.17
2019-05-25T04:52:33.121Z,22.33
2019-05-25T04:55:06.388Z,22.61
2019-05-25T04:57:38.629Z,22.82
2019-05-25T05:00:11.531Z,22.84
2019-05-25T05:02:43.886Z,22.80
2019-05-25T05:05:16.559Z,22.51
2019-05-25T05:07:49.138Z,22.64
2019-05-25T05:10:21.826Z,22.58
2019-05-25T05:12:55.931Z,22.86
2019-05-25T05:15:28.834Z,22.80
2019-05-25T05:18:01.291Z,22.97
2019-05-25T05:20:33.870Z,23.07
2019-05-25T05:23:06.152Z,23.05
2019-05-25T05:25:38.728Z,22.80
2019-05-25T05:28:11.635Z,22.86
2019-05-25T05:30:43.694Z,22.80
2019-05-25T05:33:16.168Z,22.65
2019-05-25T05:35:48.719Z,22.55
2019-05-25T05:38:21.011Z,22.17
2019-05-25T05:40:53.874Z,21.81
2019-05-25T05:43:25.932Z,21.74
2019-05-25T05:45:59.244Z,21.76
2019-05-25T05:48:31.505Z,22.01
2019-05-25T05:51:04.083Z,22.42
2019-05-25T05:53:36.918Z,22.97
2019-05-25T05:56:09.327Z,23.78
2019-05-25T05:58:41.711Z,24.33
2019-05-25T06:01:14.483Z,24.39
2019-05-25T06:03:46.979Z,24.33
2019-05-25T06:06:19.446Z,23.71
2019-05-25T06:08:52.127Z,23.42
2019-05-25T06:11:25.112Z,22.99
2019-05-25T06:13:57.471Z,22.96
2019-05-25T06:16:30.356Z,23.24
2019-05-25T06:19:03.343Z,24.44
2019-05-25T06:21:35.714Z,26.96
2019-05-25T06:24:07.984Z,29.24
2019-05-25T06:26:40.661Z,30.78
2019-05-25T06:29:13.101Z,31.91
2019-05-25T06:31:45.924Z,32.42
2019-05-25T06:34:18.384Z,32.84
2019-05-25T06:36:50.981Z,35.32
2019-05-25T06:39:23.542Z,35.93
2019-05-25T06:41:55.914Z,36.76
2019-05-25T06:44:28.515Z,36.78
2019-05-25T06:47:01.280Z,34.76
2019-05-25T06:49:33.649Z,32.69
2019-05-25T06:52:06.220Z,31.90
2019-05-25T06:54:39.004Z,33.80
2019-05-25T06:57:11.384Z,36.08
2019-05-25T06:59:43.545Z,37.05
2019-05-25T07:02:16.234Z,38.09
2019-05-25T07:04:48.598Z,38.92
2019-05-25T07:07:21.074Z,39.69
2019-05-25T07:09:53.646Z,40.36
2019-05-25T07:12:26.277Z,40.79
2019-05-25T07:14:59.615Z,40.92
2019-05-25T07:17:32.086Z,40.96
2019-05-25T07:20:06.520Z,40.02
2019-05-25T07:22:38.882Z,39.64
2019-05-25T07:25:10.772Z,39.33
2019-05-25T07:27:57.868Z,38.93
2019-05-25T07:30:16.932Z,38.07
2019-05-25T07:32:49.395Z,37.53
2019-05-25T07:35:21.976Z,35.42
2019-05-25T07:37:54.553Z,34.43
2019-05-25T07:40:26.932Z,33.24
2019-05-25T07:42:59.496Z,31.67
2019-05-25T07:45:31.772Z,31.05
2019-05-25T07:48:04.252Z,31.09
2019-05-25T07:50:36.539Z,32.02
2019-05-25T07:53:08.894Z,33.66
2019-05-25T07:55:41.076Z,36.16
2019-05-25T07:58:18.152Z,38.49
2019-05-25T08:00:47.447Z,40.16
2019-05-25T08:03:20.210Z,41.71
2019-05-25T08:05:52.587Z,42.38
2019-05-25T08:08:25.165Z,42.14
2019-05-25T08:10:57.497Z,43.03
2019-05-25T08:13:29.636Z,43.19
2019-05-25T08:16:01.572Z,44.08
2019-05-25T08:18:34.046Z,43.50
2019-05-25T08:21:06.929Z,41.96
2019-05-25T08:23:39.601Z,40.78
2019-05-25T08:26:11.878Z,37.08
2019-05-25T08:28:44.269Z,33.97
2019-05-25T08:31:16.820Z,32.22
2019-05-25T08:33:49.611Z,30.72
2019-05-25T08:36:21.964Z,29.35
2019-05-25T08:38:55.371Z,28.50
2019-05-25T08:41:27.876Z,27.58
2019-05-25T08:44:04.165Z,26.06
2019-05-25T08:46:34.239Z,23.97
2019-05-25T08:49:06.924Z,21.49
2019-05-25T08:51:39.289Z,21.49
2019-05-25T08:54:11.862Z,20.12
2019-05-25T08:56:44.546Z,19.01
2019-05-25T08:59:16.911Z,17.98
2019-05-25T09:01:49.663Z,17.50
2019-05-25T09:04:25.501Z,17.46
2019-05-25T09:06:56.254Z,17.74
2019-05-25T09:09:29.169Z,18.16
2019-05-25T09:12:02.461Z,18.58
2019-05-25T09:14:35.250Z,19.06
2019-05-25T09:17:07.929Z,19.86
2019-05-25T09:19:40.498Z,20.36
2019-05-25T09:22:13.070Z,20.41
2019-05-25T09:24:45.494Z,20.73
2019-05-25T09:27:20.889Z,20.91
2019-05-25T09:29:53.174Z,21.12
2019-05-25T09:32:25.450Z,21.31
2019-05-25T09:34:58.024Z,21.45
2019-05-25T09:37:30.902Z,21.55
2019-05-25T09:40:03.370Z,21.65
2019-05-25T09:42:36.010Z,21.68
2019-05-25T09:45:08.535Z,21.80
2019-05-25T09:47:41.285Z,21.86
2019-05-25T09:50:14.378Z,21.79
2019-05-25T09:52:46.789Z,21.77
2019-05-25T09:55:19.534Z,21.93
2019-05-25T09:57:51.614Z,22.07
2019-05-25T10:00:24.279Z,22.14
2019-05-25T10:02:56.659Z,22.08
2019-05-25T10:05:28.925Z,22.04
2019-05-25T10:08:01.530Z,22.05
2019-05-25T10:10:34.091Z,22.10
2019-05-25T10:13:08.101Z,22.02
2019-05-25T10:15:40.568Z,21.95
2019-05-25T10:18:13.145Z,21.90
2019-05-25T10:20:45.825Z,21.84
2019-05-25T10:23:18.915Z,21.65
2019-05-25T10:25:51.600Z,21.47
2019-05-25T10:28:23.987Z,21.22
2019-05-25T10:30:56.549Z,20.52
2019-05-25T10:33:28.820Z,19.89
2019-05-25T11:45:05.116Z,21.90
2019-05-25T11:47:37.533Z,22.21
2019-05-25T11:50:09.918Z,22.46
2019-05-25T11:52:42.250Z,22.68
2019-05-25T11:55:15.995Z,22.80
2019-05-25T11:57:48.243Z,22.84
2019-05-25T12:00:25.694Z,22.84
2019-05-25T12:02:54.917Z,23.07
2019-05-25T12:05:27.527Z,23.06
2019-05-25T12:07:59.803Z,23.23
2019-05-25T12:10:32.173Z,23.54
2019-05-25T12:13:06.141Z,23.63
2019-05-25T12:15:38.561Z,23.37
2019-05-25T12:18:12.232Z,23.15
2019-05-25T12:20:44.750Z,22.88
2019-05-25T12:23:17.025Z,22.88
2019-05-25T12:25:49.519Z,23.20
2019-05-25T12:28:21.952Z,23.39
2019-05-25T12:30:54.333Z,23.35
2019-05-25T12:33:26.448Z,23.31
2019-05-25T12:35:59.104Z,23.21
2019-05-25T12:38:31.329Z,23.21
2019-05-25T12:41:03.911Z,23.23
2019-05-25T12:43:37.099Z,23.18
2019-05-25T12:46:09.703Z,23.38
2019-05-25T12:48:42.162Z,23.47
2019-05-25T12:51:17.608Z,23.37
2019-05-25T12:53:49.179Z,23.48
2019-05-25T12:56:21.637Z,23.75
2019-05-25T12:58:53.782Z,24.05
2019-05-25T13:01:26.376Z,24.28
2019-05-25T13:03:58.631Z,24.40
2019-05-25T13:06:31.117Z,24.42
2019-05-25T13:09:04.328Z,24.43
2019-05-25T13:11:36.577Z,24.44
2019-05-25T13:14:14.535Z,24.52
2019-05-25T13:16:43.887Z,24.41
2019-05-25T13:19:16.052Z,24.45
2019-05-25T13:21:48.622Z,24.62
2019-05-25T13:24:20.590Z,24.70
2019-05-25T13:26:53.067Z,24.69
2019-05-25T13:29:25.327Z,24.73
2019-05-25T13:31:57.804Z,24.63
2019-05-25T13:34:31.719Z,24.50
2019-05-25T13:37:04.644Z,24.60
2019-05-25T13:39:36.738Z,24.50
2019-05-25T13:42:09.173Z,24.63
2019-05-25T13:44:41.118Z,24.51
2019-05-25T13:47:13.473Z,24.52
2019-05-25T13:49:46.149Z,24.48
2019-05-25T13:52:18.718Z,24.56
2019-05-25T13:54:51.019Z,24.62
2019-05-25T13:57:23.262Z,24.26
2019-05-25T13:59:55.533Z,24.19
2019-05-25T14:02:28.107Z,24.12
2019-05-25T14:05:00.466Z,24.22
2019-05-25T14:07:33.050Z,24.17
2019-05-25T14:10:07.237Z,23.99
2019-05-25T14:12:39.433Z,23.70
2019-05-25T14:15:12.180Z,23.57
2019-05-25T14:17:45.105Z,23.40
2019-05-25T14:20:17.481Z,23.36
2019-05-25T14:22:50.051Z,23.42
2019-05-25T14:25:22.267Z,23.44
2019-05-25T14:27:54.522Z,23.47
2019-05-25T14:30:26.834Z,23.77
2019-05-25T14:33:00.157Z,23.96
2019-05-25T14:35:32.237Z,24.14
2019-05-25T14:38:05.019Z,24.21
2019-05-25T14:40:37.270Z,24.34
2019-05-25T14:43:10.425Z,24.43
2019-05-25T14:45:43.203Z,24.50
2019-05-25T14:48:15.759Z,24.51
2019-05-25T14:50:48.402Z,24.48
2019-05-25T14:53:20.771Z,24.35
2019-05-25T14:55:52.841Z,24.25
2019-05-25T14:58:25.720Z,24.32
2019-05-25T15:00:57.799Z,24.36
2019-05-25T15:03:31.187Z,24.42
2019-05-25T15:06:03.253Z,24.51
2019-05-25T15:08:35.818Z,24.56
2019-05-25T15:11:07.893Z,24.53
2019-05-25T15:13:40.899Z,24.52
2019-05-25T15:16:13.261Z,24.51
2019-05-25T15:18:45.791Z,24.54
2019-05-25T15:21:18.640Z,24.57
2019-05-25T15:23:51.288Z,24.71
2019-05-25T15:26:24.012Z,24.77
2019-05-25T15:28:58.172Z,24.91
2019-05-25T15:31:30.976Z,24.66
2019-05-25T15:34:03.889Z,24.46
2019-05-25T15:36:36.803Z,24.20
2019-05-25T15:39:12.446Z,23.98
2019-05-25T15:41:45.721Z,23.74
2019-05-25T15:44:19.626Z,23.53
2019-05-25T15:46:52.429Z,23.39
2019-05-25T15:49:33.392Z,23.29
2019-05-25T15:52:01.192Z,23.12
2019-05-25T15:54:34.656Z,23.02
2019-05-25T15:57:07.775Z,22.94
2019-05-25T15:59:40.581Z,22.72
2019-05-25T16:02:13.048Z,22.66
2019-05-25T16:04:47.485Z,22.50
2019-05-25T16:07:19.892Z,22.42
2019-05-25T16:09:52.817Z,22.29
2019-05-25T16:12:25.245Z,22.06
2019-05-25T16:14:58.286Z,21.97
2019-05-25T16:17:31.606Z,21.83
2019-05-25T16:20:04.380Z,21.68
2019-05-25T16:22:37.075Z,21.55
2019-05-25T16:25:09.711Z,21.46
2019-05-25T16:27:41.983Z,21.26
2019-05-25T16:30:14.674Z,21.25
2019-05-25T16:33:10.927Z,21.16
2019-05-25T16:35:21.351Z,21.03
2019-05-25T16:37:53.772Z,20.92
2019-05-25T16:40:26.732Z,20.79
2019-05-25T16:42:59.181Z,20.68
2019-05-25T16:45:32.091Z,20.61
2019-05-25T16:48:04.248Z,20.53
2019-05-25T16:50:37.645Z,20.43
2019-05-25T16:53:09.680Z,20.31
2019-05-25T16:55:42.485Z,20.19
2019-05-25T16:58:14.799Z,20.18
2019-05-25T17:00:47.645Z,20.15
2019-05-25T17:03:28.159Z,20.09
2019-05-25T17:05:57.319Z,20.01
2019-05-25T17:08:29.808Z,19.94
2019-05-25T17:11:03.691Z,19.90
2019-05-25T17:13:36.098Z,19.86
2019-05-25T17:16:08.832Z,19.85
2019-05-25T17:18:41.414Z,19.85
2019-05-25T17:21:14.179Z,19.74
2019-05-25T17:23:46.981Z,19.63
2019-05-25T17:26:19.547Z,19.61
2019-05-25T17:28:52.186Z,19.48
2019-05-25T17:31:24.950Z,19.37
2019-05-25T17:33:57.412Z,19.29
2019-05-25T17:36:30.030Z,19.16
2019-05-25T17:39:02.653Z,19.08
2019-05-25T17:41:38.207Z,19.02
2019-05-25T17:44:10.568Z,18.97
2019-05-25T17:46:43.248Z,18.90
2019-05-25T17:49:15.940Z,18.80
2019-05-25T17:51:48.607Z,18.77
2019-05-25T17:54:20.963Z,18.69
2019-05-25T17:56:54.304Z,18.63
2019-05-25T17:59:26.639Z,18.54
2019-05-25T18:01:59.213Z,18.51
2019-05-25T18:04:31.476Z,18.46
2019-05-25T18:07:04.310Z,18.47
2019-05-25T18:09:36.643Z,18.43
2019-05-25T18:12:09.552Z,18.38
2019-05-25T18:14:41.801Z,18.35
2019-05-25T18:17:14.686Z,18.26
2019-05-25T18:19:47.163Z,18.18
2019-05-25T18:22:19.634Z,18.10
2019-05-25T18:24:52.321Z,18.06
2019-05-25T18:27:25.216Z,18.02
2019-05-25T18:29:57.665Z,18.01
2019-05-25T18:32:30.137Z,18.00
2019-05-25T18:35:02.510Z,18.02
2019-05-25T18:37:35.355Z,18.05
2019-05-25T18:40:07.664Z,18.08
2019-05-25T18:42:40.346Z,18.10
2019-05-25T18:45:12.630Z,18.10
2019-05-25T18:47:45.383Z,18.12
2019-05-25T18:50:17.962Z,18.13
2019-05-25T18:52:50.773Z,18.13
2019-05-25T18:55:23.219Z,18.10
2019-05-25T18:57:55.901Z,18.06
2019-05-25T19:00:28.172Z,18.02
2019-05-25T19:03:00.689Z,17.95
2019-05-25T19:05:33.323Z,17.90
2019-05-25T19:08:05.811Z,17.92
2019-05-25T19:10:38.271Z,17.94
2019-05-25T19:13:11.062Z,17.96
2019-05-25T19:15:45.067Z,18.00
2019-05-25T19:18:17.550Z,17.94
2019-05-25T19:20:50.121Z,17.89
2019-05-25T19:23:22.598Z,17.89
2019-05-25T19:25:54.886Z,17.96
2019-05-25T19:28:27.446Z,18.01
2019-05-25T19:30:59.971Z,18.07
2019-05-25T19:33:32.482Z,18.08
2019-05-25T19:36:04.865Z,18.10
2019-05-25T19:38:37.650Z,18.13
2019-05-25T19:41:10.039Z,18.18
2019-05-25T19:43:42.699Z,18.19
2019-05-25T19:46:15.313Z,18.16
2019-05-25T19:48:49.578Z,18.16
2019-05-25T19:51:23.513Z,18.13
2019-05-25T19:53:56.406Z,18.13
2019-05-25T19:56:28.854Z,18.10
2019-05-25T19:59:01.648Z,18.10
2019-05-25T20:01:33.909Z,18.11
2019-05-25T20:04:06.479Z,18.13
2019-05-25T20:06:38.953Z,17.76
2019-05-25T20:09:11.540Z,18.09
2019-05-25T20:11:44.214Z,18.06
2019-05-25T20:14:16.895Z,18.01
2019-05-25T20:16:49.467Z,17.97
2019-05-25T20:19:22.359Z,17.90
2019-05-25T20:21:54.727Z,17.80
2019-05-25T20:24:27.209Z,17.73
2019-05-25T20:27:01.712Z,17.68
2019-05-25T20:29:33.990Z,17.63
2019-05-25T20:32:06.263Z,17.59
2019-05-25T20:34:38.842Z,17.57
2019-05-25T20:37:11.429Z,17.53
2019-05-25T20:39:44.101Z,17.48
2019-05-25T20:42:16.576Z,17.41
2019-05-25T20:44:49.352Z,17.40
2019-05-25T20:47:21.721Z,17.39
2019-05-25T20:49:53.991Z,17.39
2019-05-25T20:52:26.568Z,17.40
2019-05-25T20:54:59.286Z,17.40
2019-05-25T20:57:32.127Z,17.43
2019-05-25T21:00:05.797Z,17.44
2019-05-25T21:02:39.884Z,17.45
2019-05-25T21:05:12.325Z,17.46
2019-05-25T21:07:44.690Z,17.48
2019-05-25T21:10:17.192Z,17.51
2019-05-25T21:12:49.542Z,17.53
2019-05-25T21:15:22.327Z,17.51
2019-05-25T21:17:54.692Z,17.51
2019-05-25T21:20:27.060Z,17.53
2019-05-25T21:22:59.233Z,17.55
2019-05-25T21:25:32.423Z,17.56
2019-05-25T21:28:05.431Z,17.54
2019-05-25T21:30:38.084Z,17.61
2019-05-25T21:33:10.362Z,17.58
2019-05-25T21:35:42.625Z,17.59
2019-05-25T21:38:14.687Z,17.59
2019-05-25T21:40:47.368Z,17.58
2019-05-25T21:43:19.800Z,17.58
2019-05-25T21:45:52.217Z,17.57
2019-05-25T21:48:24.480Z,17.54
2019-05-25T21:50:56.957Z,17.52
2019-05-25T21:53:29.437Z,17.50
2019-05-25T21:56:02.213Z,17.50
2019-05-25T21:58:34.591Z,17.50
2019-05-25T22:01:07.709Z,17.46
2019-05-25T22:03:39.538Z,17.43
2019-05-25T22:06:24.037Z,17.39
2019-05-25T22:08:45.930Z,17.38
2019-05-25T22:11:18.471Z,17.34
2019-05-25T22:13:51.185Z,17.28
2019-05-25T22:16:23.456Z,17.28
2019-05-25T22:18:55.928Z,17.23
2019-05-25T22:21:28.403Z,17.20
2019-05-25T22:24:03.738Z,17.13
2019-05-25T22:26:38.417Z,17.09
2019-05-25T22:29:10.844Z,17.05
2019-05-25T22:31:43.336Z,17.02
2019-05-25T22:34:15.687Z,16.98
2019-05-25T22:36:48.363Z,16.96
2019-05-25T22:39:20.731Z,16.92
2019-05-25T22:41:53.314Z,16.90
2019-05-25T22:44:25.567Z,16.89
2019-05-25T22:46:58.162Z,16.85
2019-05-25T22:49:30.931Z,16.83
2019-05-25T22:52:03.817Z,16.80
2019-05-25T22:54:37.313Z,16.78
2019-05-25T22:57:09.592Z,16.76
2019-05-25T22:59:42.298Z,16.71
2019-05-25T23:02:14.640Z,16.67
2019-05-25T23:04:48.446Z,16.66
2019-05-25T23:07:20.974Z,16.67
2019-05-25T23:09:53.289Z,16.64
2019-05-25T23:12:25.971Z,16.64
2019-05-25T23:14:58.137Z,16.63
2019-05-25T23:17:30.508Z,16.55
2019-05-25T23:20:02.575Z,16.53
2019-05-25T23:22:35.259Z,16.48
2019-05-25T23:25:07.524Z,16.45
2019-05-25T23:27:39.791Z,16.43
2019-05-25T23:30:12.371Z,16.45
2019-05-25T23:32:44.643Z,16.45
2019-05-25T23:35:17.659Z,16.45
2019-05-25T23:37:49.996Z,16.44
2019-05-25T23:40:22.066Z,16.41
2019-05-25T23:42:54.636Z,16.37
2019-05-25T23:45:26.707Z,16.35
2019-05-25T23:47:59.282Z,16.31
2019-05-25T23:50:31.646Z,16.29
2019-05-25T23:53:04.130Z,16.29
2019-05-25T23:55:36.494Z,16.32
2019-05-25T23:58:08.980Z,16.30
